Time;durP1;ratioP1;P1;durP2;ratioP2;P2;SDS_P1;SDS_P2;PMS_P1;PMS_P2;Temp;Humidity;BMP_temperature;BMP_pressure;BME280_temperature;BME280_humidity;BME280_pressure;Samples;Min_cycle;Max_cycle;Signal;HPM_P1;HPM_P2
2021/08/30 04:50:38;;;;;;;11.32;10.15;;;;;;;;;;5847790;23;20052;-69
2021/08/30 04:53:06;;;;;;;12.70;10.23;;;;;;;;;;4967781;28;20059;-67
2021/08/30 04:55:33;;;;;;;10.90;9.75;;;;;;;;;;4944877;28;20085;-68
2021/08/30 04:58:02;;;;;;;11.02;9.93;;;;;;;;;;4974787;28;20053;-68
2021/08/30 05:00:29;;;;;;;12.75;10.18;;;;;;;;;;4963767;28;20043;-68
2021/08/30 05:02:56;;;;;;;12.43;10.13;;;;;;;;;;4965886;23;20561;-68
2021/08/30 05:05:24;;;;;;;15.52;10.75;;;;;;;;;;4993025;28;20097;-67
2021/08/30 05:07:52;;;;;;;15.13;10.40;;;;;;;;;;4993356;28;20492;-68
2021/08/30 05:10:20;;;;;;;15.48;10.52;;;;;;;;;;4993817;28;20046;-68
2021/08/30 05:12:47;;;;;;;12.05;10.63;;;;;;;;;;4978149;28;20045;-68
2021/08/30 05:15:14;;;;;;;12.98;11.50;;;;;;;;;;4982516;28;20042;-67
2021/08/30 05:17:41;;;;;;;12.85;10.93;;;;;;;;;;4992391;28;20046;-68
2021/08/30 05:20:09;;;;;;;12.95;11.63;;;;;;;;;;4993003;28;20108;-68
2021/08/30 05:22:45;;;;;;;13.73;11.65;;;;;;;;;;4991698;28;20099;-67
2021/08/30 05:25:17;;;;;;;12.77;11.07;;;;;;;;;;4990433;28;20038;-68
2021/08/30 05:27:48;;;;;;;14.20;11.52;;;;;;;;;;4993423;28;20286;-68
2021/08/30 05:30:15;;;;;;;14.63;11.98;;;;;;;;;;4993046;28;20038;-68
2021/08/30 05:32:45;;;;;;;15.52;12.57;;;;;;;;;;4993740;28;20042;-68
2021/08/30 05:35:29;;;;;;;19.20;11.80;;;;;;;;;;4992966;28;20062;-68
2021/08/30 05:38:05;;;;;;;13.43;12.02;;;;;;;;;;4993263;28;20510;-68
2021/08/30 05:40:38;;;;;;;18.00;13.65;;;;;;;;;;4992903;28;20038;-68
2021/08/30 05:43:12;;;;;;;15.18;12.35;;;;;;;;;;4993304;28;20500;-68
2021/08/30 05:45:49;;;;;;;16.10;12.55;;;;;;;;;;4993027;28;20053;-68
2021/08/30 05:48:30;;;;;;;21.38;13.00;;;;;;;;;;4993808;28;20034;-68
2021/08/30 05:51:07;;;;;;;13.07;11.07;;;;;;;;;;4993360;28;20046;-68
2021/08/30 05:53:49;;;;;;;16.20;12.60;;;;;;;;;;4993191;28;20044;-68
2021/08/30 05:56:40;;;;;;;18.23;12.05;;;;;;;;;;4993376;28;20046;-67
2021/08/30 05:59:21;;;;;;;18.08;12.75;;;;;;;;;;4993162;28;20050;-68
2021/08/30 06:02:00;;;;;;;15.98;13.07;;;;;;;;;;4992519;28;20125;-68
2021/08/30 06:04:40;;;;;;;13.15;11.50;;;;;;;;;;4992962;28;20141;-68
2021/08/30 06:07:18;;;;;;;18.75;13.18;;;;;;;;;;4992881;28;20061;-68
2021/08/30 06:09:47;;;;;;;15.93;12.93;;;;;;;;;;4992812;28;20046;-68
2021/08/30 06:12:15;;;;;;;16.60;12.35;;;;;;;;;;4992758;28;20050;-69
2021/08/30 06:14:43;;;;;;;18.42;12.48;;;;;;;;;;4993156;28;20053;-68
2021/08/30 06:17:11;;;;;;;16.10;12.05;;;;;;;;;;4975302;28;20061;-67
2021/08/30 06:19:39;;;;;;;13.90;12.35;;;;;;;;;;4993016;28;20052;-67
2021/08/30 06:22:08;;;;;;;15.02;12.70;;;;;;;;;;4992646;28;20045;-68
2021/08/30 06:24:39;;;;;;;17.40;13.10;;;;;;;;;;5002287;28;20557;-67
2021/08/30 06:27:07;;;;;;;14.50;12.32;;;;;;;;;;4992754;28;20689;-67
2021/08/30 06:29:34;;;;;;;16.92;12.30;;;;;;;;;;4992373;28;20462;-69
2021/08/30 06:32:03;;;;;;;14.48;13.10;;;;;;;;;;4992384;28;20046;-68
2021/08/30 06:34:30;;;;;;;16.83;13.10;;;;;;;;;;4974810;28;20054;-67
2021/08/30 06:36:57;;;;;;;17.60;12.85;;;;;;;;;;4992487;28;20038;-67
2021/08/30 06:39:25;;;;;;;14.63;12.65;;;;;;;;;;4992326;28;20043;-68
2021/08/30 06:41:52;;;;;;;16.25;13.32;;;;;;;;;;4992010;28;20065;-67
2021/08/30 06:44:19;;;;;;;14.68;13.13;;;;;;;;;;4992745;28;20405;-68
2021/08/30 06:46:46;;;;;;;14.88;13.15;;;;;;;;;;4992399;28;20049;-67
2021/08/30 06:49:15;;;;;;;20.30;14.20;;;;;;;;;;4992381;28;20043;-67
2021/08/30 06:51:42;;;;;;;16.85;12.60;;;;;;;;;;4991997;28;20526;-67
2021/08/30 06:54:10;;;;;;;18.13;12.43;;;;;;;;;;4991625;28;20054;-67
2021/08/30 06:56:38;;;;;;;18.63;12.23;;;;;;;;;;4991891;28;20049;-67
2021/08/30 06:59:05;;;;;;;15.05;12.65;;;;;;;;;;4992005;28;20109;-67
2021/08/30 07:01:32;;;;;;;13.13;11.40;;;;;;;;;;4992319;28;20141;-67
2021/08/30 07:04:01;;;;;;;13.85;12.20;;;;;;;;;;4984726;28;20063;-68
2021/08/30 07:06:30;;;;;;;14.43;12.00;;;;;;;;;;4955197;28;20038;-68
2021/08/30 07:08:57;;;;;;;14.65;11.68;;;;;;;;;;4972312;28;20135;-67
2021/08/30 07:11:24;;;;;;;14.50;11.80;;;;;;;;;;4972250;28;20426;-67
2021/08/30 07:13:51;;;;;;;16.77;11.40;;;;;;;;;;4971749;28;20047;-67
2021/08/30 07:16:19;;;;;;;12.98;11.68;;;;;;;;;;4972549;28;20050;-68
2021/08/30 07:18:46;;;;;;;13.40;12.00;;;;;;;;;;4971900;28;20051;-67
2021/08/30 07:21:13;;;;;;;16.02;11.75;;;;;;;;;;4972134;28;20046;-67
2021/08/30 07:23:42;;;;;;;16.55;12.07;;;;;;;;;;4972334;28;20065;-67
2021/08/30 07:26:09;;;;;;;15.57;12.30;;;;;;;;;;4972151;28;20483;-67
2021/08/30 07:28:36;;;;;;;18.45;11.73;;;;;;;;;;4972153;28;20454;-68
2021/08/30 07:31:04;;;;;;;12.95;11.52;;;;;;;;;;4971924;28;20050;-67
2021/08/30 07:33:31;;;;;;;15.70;12.15;;;;;;;;;;4971885;28;20414;-67
2021/08/30 07:35:58;;;;;;;13.80;11.77;;;;;;;;;;4971784;28;20043;-67
2021/08/30 07:38:25;;;;;;;13.02;11.70;;;;;;;;;;4971930;28;20038;-67
2021/08/30 07:40:54;;;;;;;15.35;12.88;;;;;;;;;;4971534;28;20047;-68
2021/08/30 07:43:21;;;;;;;16.63;13.25;;;;;;;;;;4971534;28;20043;-68
2021/08/30 07:45:49;;;;;;;13.20;11.88;;;;;;;;;;4971437;28;20407;-68
2021/08/30 07:48:16;;;;;;;14.25;11.48;;;;;;;;;;4971706;28;20402;-68
2021/08/30 07:50:43;;;;;;;13.10;11.75;;;;;;;;;;4971707;28;20054;-68
2021/08/30 07:53:11;;;;;;;17.50;13.60;;;;;;;;;;4971399;28;20049;-68
2021/08/30 07:55:38;;;;;;;13.15;11.85;;;;;;;;;;4971679;28;20047;-68
2021/08/30 07:58:07;;;;;;;15.90;11.52;;;;;;;;;;4971620;28;20051;-68
2021/08/30 08:00:34;;;;;;;12.85;11.38;;;;;;;;;;4970309;28;20283;-68
2021/08/30 08:03:01;;;;;;;16.27;12.48;;;;;;;;;;4971474;28;20121;-68
2021/08/30 08:05:28;;;;;;;17.40;12.40;;;;;;;;;;4987442;28;20039;-68
2021/08/30 08:07:56;;;;;;;15.10;12.93;;;;;;;;;;4990336;28;20097;-68
2021/08/30 08:10:23;;;;;;;14.65;11.90;;;;;;;;;;4991050;28;20053;-68
2021/08/30 08:12:50;;;;;;;15.85;12.20;;;;;;;;;;4987190;28;20050;-68
2021/08/30 08:15:19;;;;;;;17.73;12.50;;;;;;;;;;4991245;28;20039;-69
2021/08/30 08:17:46;;;;;;;17.05;11.85;;;;;;;;;;4989998;28;20049;-68
2021/08/30 08:20:14;;;;;;;14.15;11.85;;;;;;;;;;4990808;28;20038;-68
2021/08/30 08:22:42;;;;;;;14.38;12.88;;;;;;;;;;4991138;28;20050;-68
2021/08/30 08:25:10;;;;;;;14.98;11.75;;;;;;;;;;4993412;28;20046;-68
2021/08/30 08:27:37;;;;;;;13.88;12.45;;;;;;;;;;4988222;28;20053;-68
2021/08/30 08:30:05;;;;;;;16.77;11.30;;;;;;;;;;4994491;28;20050;-68
2021/08/30 08:32:34;;;;;;;13.75;10.95;;;;;;;;;;4991310;28;20042;-68
2021/08/30 08:35:01;;;;;;;12.50;11.20;;;;;;;;;;4991890;28;20104;-68
2021/08/30 08:37:29;;;;;;;12.43;11.13;;;;;;;;;;4976904;28;20317;-68
2021/08/30 08:39:56;;;;;;;13.70;10.55;;;;;;;;;;4993499;28;20491;-68
2021/08/30 08:42:23;;;;;;;14.93;10.13;;;;;;;;;;4989408;28;20055;-68
2021/08/30 08:44:51;;;;;;;15.40;10.70;;;;;;;;;;4994410;28;20053;-68
2021/08/30 08:47:18;;;;;;;11.48;10.32;;;;;;;;;;4994529;28;20038;-68
2021/08/30 08:49:50;;;;;;;16.92;10.50;;;;;;;;;;4987721;28;20038;-68
2021/08/30 08:52:19;;;;;;;12.32;9.88;;;;;;;;;;4988303;28;20080;-69
2021/08/30 08:54:46;;;;;;;15.07;10.52;;;;;;;;;;4976044;28;20050;-69
2021/08/30 08:57:14;;;;;;;16.38;10.68;;;;;;;;;;4993778;28;20124;-68
2021/08/30 08:59:44;;;;;;;11.20;10.00;;;;;;;;;;4993897;28;20042;-68
2021/08/30 09:02:11;;;;;;;12.02;10.30;;;;;;;;;;4993382;28;20097;-68
2021/08/30 09:04:38;;;;;;;15.70;9.75;;;;;;;;;;4992268;28;20429;-68
2021/08/30 09:07:12;;;;;;;11.95;10.65;;;;;;;;;;4993078;28;20038;-68
2021/08/30 09:09:41;;;;;;;11.65;10.48;;;;;;;;;;4993471;28;20049;-69
2021/08/30 09:12:19;;;;;;;13.90;11.20;;;;;;;;;;4993708;28;20085;-68
2021/08/30 09:14:52;;;;;;;11.77;10.10;;;;;;;;;;4990986;28;20042;-69
2021/08/30 09:17:21;;;;;;;13.52;10.88;;;;;;;;;;4992521;28;20129;-69
2021/08/30 09:19:48;;;;;;;12.98;9.85;;;;;;;;;;4995671;28;20053;-68
2021/08/30 09:22:17;;;;;;;11.80;10.70;;;;;;;;;;4995519;28;20042;-69
2021/08/30 09:24:44;;;;;;;13.85;10.50;;;;;;;;;;4992983;28;20046;-68
2021/08/30 09:27:13;;;;;;;15.35;11.35;;;;;;;;;;4993667;28;20065;-68
2021/08/30 09:29:42;;;;;;;12.10;11.00;;;;;;;;;;4992334;28;20053;-68
2021/08/30 09:32:11;;;;;;;11.63;10.07;;;;;;;;;;4989237;28;20513;-68
2021/08/30 09:34:40;;;;;;;16.52;11.13;;;;;;;;;;4990987;28;20038;-68
2021/08/30 09:37:08;;;;;;;11.50;10.38;;;;;;;;;;4991829;28;20042;-69
2021/08/30 09:39:45;;;;;;;11.50;10.23;;;;;;;;;;4993763;28;20046;-68
2021/08/30 09:42:12;;;;;;;13.70;10.98;;;;;;;;;;4993454;28;20046;-69
2021/08/30 09:44:40;;;;;;;13.73;10.18;;;;;;;;;;4993316;28;20051;-68
2021/08/30 09:47:11;;;;;;;11.57;10.35;;;;;;;;;;4993104;28;20047;-68
2021/08/30 09:49:39;;;;;;;11.02;9.93;;;;;;;;;;4993108;28;20046;-68
2021/08/30 09:52:06;;;;;;;12.75;9.57;;;;;;;;;;4986869;28;20065;-69
2021/08/30 09:54:33;;;;;;;11.98;10.13;;;;;;;;;;4986678;28;20125;-68
2021/08/30 09:57:02;;;;;;;12.23;10.43;;;;;;;;;;4990621;28;20042;-68
2021/08/30 09:59:30;;;;;;;12.23;9.93;;;;;;;;;;4991277;28;20082;-68
2021/08/30 10:01:58;;;;;;;12.35;10.25;;;;;;;;;;4991558;28;20051;-68
2021/08/30 10:04:26;;;;;;;11.45;10.35;;;;;;;;;;4990492;28;20137;-68
2021/08/30 10:06:53;;;;;;;17.67;10.82;;;;;;;;;;4992668;28;20061;-68
2021/08/30 10:09:21;;;;;;;11.90;10.45;;;;;;;;;;4990340;28;20050;-69
2021/08/30 10:11:50;;;;;;;12.30;8.98;;;;;;;;;;5000106;28;20046;-69
2021/08/30 10:14:19;;;;;;;10.95;9.93;;;;;;;;;;4992523;28;20042;-68
2021/08/30 10:16:47;;;;;;;11.38;9.63;;;;;;;;;;4991823;28;20511;-69
2021/08/30 10:19:14;;;;;;;10.52;8.88;;;;;;;;;;4983986;28;20117;-68
2021/08/30 10:21:45;;;;;;;11.02;8.65;;;;;;;;;;4991930;28;20038;-69
2021/08/30 10:24:14;;;;;;;10.23;9.20;;;;;;;;;;4992362;28;20054;-69
2021/08/30 10:26:42;;;;;;;10.32;9.23;;;;;;;;;;4992701;28;20038;-69
2021/08/30 10:29:11;;;;;;;10.57;9.10;;;;;;;;;;4992296;28;20516;-68
2021/08/30 10:31:46;;;;;;;17.55;10.25;;;;;;;;;;4992247;28;20069;-69
2021/08/30 10:34:23;;;;;;;10.80;9.00;;;;;;;;;;4992316;28;20057;-68
2021/08/30 10:36:50;;;;;;;12.15;9.30;;;;;;;;;;4972823;28;20134;-69
2021/08/30 10:39:17;;;;;;;10.40;8.32;;;;;;;;;;4988794;28;20057;-69
2021/08/30 10:41:45;;;;;;;9.98;8.98;;;;;;;;;;4989477;28;20060;-68
2021/08/30 10:44:15;;;;;;;9.65;8.30;;;;;;;;;;4994858;28;20050;-68
2021/08/30 10:46:46;;;;;;;11.60;7.93;;;;;;;;;;4991414;28;20387;-68
2021/08/30 10:49:14;;;;;;;9.10;7.78;;;;;;;;;;4992003;28;20050;-68
2021/08/30 10:51:42;;;;;;;10.73;7.72;;;;;;;;;;4992274;28;20045;-68
2021/08/30 10:54:12;;;;;;;9.85;7.72;;;;;;;;;;4992232;28;20070;-68
2021/08/30 10:56:40;;;;;;;7.80;7.03;;;;;;;;;;4992995;28;20052;-68
2021/08/30 10:59:09;;;;;;;9.43;8.52;;;;;;;;;;4992333;28;20546;-68
2021/08/30 11:01:38;;;;;;;9.85;8.25;;;;;;;;;;4991372;28;20046;-68
2021/08/30 11:04:09;;;;;;;9.13;8.23;;;;;;;;;;5012147;23;20522;-68
2021/08/30 11:06:39;;;;;;;8.90;7.53;;;;;;;;;;4991692;28;20112;-68
2021/08/30 11:09:06;;;;;;;9.73;8.45;;;;;;;;;;4991825;28;20057;-68
2021/08/30 11:11:34;;;;;;;9.30;7.18;;;;;;;;;;4991833;28;20510;-68
2021/08/30 11:14:03;;;;;;;9.13;8.23;;;;;;;;;;4999330;28;20493;-68
2021/08/30 11:16:31;;;;;;;8.98;7.82;;;;;;;;;;5010678;28;20041;-68
2021/08/30 11:18:59;;;;;;;11.13;7.93;;;;;;;;;;5005673;28;20142;-68
2021/08/30 11:21:35;;;;;;;9.95;8.32;;;;;;;;;;5007701;28;20041;-68
2021/08/30 11:24:02;;;;;;;10.55;8.20;;;;;;;;;;5005418;28;20070;-68
2021/08/30 11:26:30;;;;;;;8.68;7.88;;;;;;;;;;5008507;28;20050;-69
2021/08/30 11:28:58;;;;;;;9.40;8.27;;;;;;;;;;5010058;28;20057;-68
2021/08/30 11:31:27;;;;;;;9.52;8.63;;;;;;;;;;5011086;28;20050;-68
2021/08/30 11:33:54;;;;;;;15.63;8.48;;;;;;;;;;4998521;28;20049;-68
2021/08/30 11:36:22;;;;;;;10.90;7.82;;;;;;;;;;5002798;28;20042;-68
2021/08/30 11:38:54;;;;;;;16.23;8.63;;;;;;;;;;5009040;28;20053;-68
2021/08/30 11:41:21;;;;;;;9.88;8.15;;;;;;;;;;5010172;28;20203;-68
2021/08/30 11:43:49;;;;;;;11.30;7.78;;;;;;;;;;5008918;28;20579;-68
2021/08/30 11:46:16;;;;;;;9.45;8.35;;;;;;;;;;5006568;28;20052;-68
2021/08/30 11:48:44;;;;;;;10.07;8.95;;;;;;;;;;5003303;28;20046;-68
2021/08/30 11:51:11;;;;;;;9.32;8.02;;;;;;;;;;5007545;28;20413;-68
2021/08/30 11:53:38;;;;;;;10.95;8.20;;;;;;;;;;4997784;28;20053;-68
2021/08/30 11:56:07;;;;;;;8.90;7.93;;;;;;;;;;5004047;28;20483;-68
2021/08/30 11:58:34;;;;;;;8.27;7.47;;;;;;;;;;5000054;28;20042;-69
2021/08/30 12:01:05;;;;;;;9.88;7.47;;;;;;;;;;5005941;28;20046;-69
2021/08/30 12:03:42;;;;;;;9.40;7.35;;;;;;;;;;5013143;28;20055;-68
2021/08/30 12:06:14;;;;;;;8.88;7.80;;;;;;;;;;5028992;28;20046;-68
2021/08/30 12:08:48;;;;;;;9.45;7.60;;;;;;;;;;5025677;28;20043;-68
2021/08/30 12:11:18;;;;;;;9.50;7.72;;;;;;;;;;5003924;28;20045;-68
2021/08/30 12:13:56;;;;;;;10.50;8.05;;;;;;;;;;5013783;28;20053;-68
2021/08/30 12:16:24;;;;;;;8.95;8.00;;;;;;;;;;5023642;28;20038;-68
2021/08/30 12:18:52;;;;;;;10.02;8.15;;;;;;;;;;5019636;28;20431;-68
2021/08/30 12:21:28;;;;;;;8.40;7.70;;;;;;;;;;5026704;28;20493;-68
2021/08/30 12:23:55;;;;;;;9.45;8.23;;;;;;;;;;5020230;28;20073;-68
2021/08/30 12:26:24;;;;;;;9.98;8.00;;;;;;;;;;5019460;28;20298;-68
2021/08/30 12:28:54;;;;;;;11.55;8.07;;;;;;;;;;5027041;28;20037;-69
2021/08/30 12:31:25;;;;;;;8.02;6.93;;;;;;;;;;5037312;28;20041;-68
2021/08/30 12:34:01;;;;;;;10.18;7.03;;;;;;;;;;5036623;28;20053;-68
2021/08/30 12:36:28;;;;;;;8.63;7.45;;;;;;;;;;5032975;28;20041;-68
2021/08/30 12:38:56;;;;;;;8.25;7.45;;;;;;;;;;5020503;28;20493;-68
2021/08/30 12:41:24;;;;;;;7.80;7.00;;;;;;;;;;5014646;28;20048;-68
2021/08/30 12:43:52;;;;;;;7.82;7.03;;;;;;;;;;5015234;28;20101;-68
2021/08/30 12:46:19;;;;;;;8.63;7.72;;;;;;;;;;5015441;28;20523;-69
2021/08/30 12:48:46;;;;;;;7.60;6.85;;;;;;;;;;5014782;28;20548;-68
2021/08/30 12:51:14;;;;;;;7.45;6.65;;;;;;;;;;5011664;28;20054;-68
2021/08/30 12:53:41;;;;;;;8.80;7.40;;;;;;;;;;5012287;28;20057;-68
2021/08/30 12:56:08;;;;;;;7.85;7.05;;;;;;;;;;5018097;28;20077;-68
2021/08/30 12:58:37;;;;;;;8.27;7.57;;;;;;;;;;5026344;28;20034;-68
2021/08/30 13:01:04;;;;;;;7.20;6.45;;;;;;;;;;5008288;28;20052;-67
2021/08/30 13:03:32;;;;;;;9.18;6.55;;;;;;;;;;5027015;28;20054;-68
2021/08/30 13:05:59;;;;;;;11.02;7.15;;;;;;;;;;5026227;28;20053;-67
2021/08/30 13:08:26;;;;;;;9.43;6.10;;;;;;;;;;5026293;28;20125;-69
2021/08/30 13:10:54;;;;;;;7.57;5.68;;;;;;;;;;5028678;28;20041;-68
2021/08/30 13:13:21;;;;;;;7.82;6.68;;;;;;;;;;5011986;28;20050;-68
2021/08/30 13:15:50;;;;;;;7.82;6.40;;;;;;;;;;5031155;28;20044;-68
2021/08/30 13:18:18;;;;;;;6.88;6.22;;;;;;;;;;5029363;28;20402;-68
2021/08/30 13:20:49;;;;;;;6.65;5.93;;;;;;;;;;5032379;28;20046;-68
2021/08/30 13:23:17;;;;;;;7.20;6.18;;;;;;;;;;5030708;28;20060;-68
2021/08/30 13:25:45;;;;;;;7.38;6.10;;;;;;;;;;5029006;28;20388;-68
2021/08/30 13:28:13;;;;;;;9.50;6.38;;;;;;;;;;5016836;28;20041;-68
2021/08/30 13:30:40;;;;;;;7.03;6.32;;;;;;;;;;5023407;28;20073;-68
2021/08/30 13:33:09;;;;;;;9.85;6.72;;;;;;;;;;5028654;28;20327;-69
2021/08/30 13:35:37;;;;;;;7.25;6.53;;;;;;;;;;5014825;28;20049;-67
2021/08/30 13:38:05;;;;;;;10.23;7.03;;;;;;;;;;5017760;28;20038;-68
2021/08/30 13:40:32;;;;;;;7.88;7.07;;;;;;;;;;5026964;28;20052;-68
2021/08/30 13:43:00;;;;;;;9.70;7.35;;;;;;;;;;5018601;28;20045;-68
2021/08/30 13:45:27;;;;;;;8.63;7.50;;;;;;;;;;5020574;28;20056;-68
2021/08/30 13:47:56;;;;;;;7.80;6.85;;;;;;;;;;5032180;28;20152;-69
2021/08/30 13:50:25;;;;;;;8.02;7.22;;;;;;;;;;5029667;28;20048;-68
2021/08/30 13:52:53;;;;;;;7.90;7.20;;;;;;;;;;5013306;28;20049;-68
2021/08/30 13:55:21;;;;;;;8.68;7.68;;;;;;;;;;5028346;28;20556;-68
2021/08/30 13:57:48;;;;;;;8.57;7.50;;;;;;;;;;5027562;28;20100;-68
2021/08/30 14:00:16;;;;;;;9.18;8.27;;;;;;;;;;5022761;28;20049;-68
2021/08/30 14:02:43;;;;;;;8.82;7.93;;;;;;;;;;5030960;28;20519;-68
2021/08/30 14:05:11;;;;;;;8.65;7.80;;;;;;;;;;5013249;28;20104;-68
2021/08/30 14:07:40;;;;;;;10.50;8.50;;;;;;;;;;5030545;28;20546;-68
2021/08/30 14:10:08;;;;;;;9.55;7.65;;;;;;;;;;5031113;28;20041;-69
2021/08/30 14:12:36;;;;;;;8.57;7.68;;;;;;;;;;5029755;28;20041;-69
2021/08/30 14:15:04;;;;;;;8.60;7.80;;;;;;;;;;5027140;28;20052;-69
2021/08/30 14:17:31;;;;;;;10.32;7.65;;;;;;;;;;5023610;28;20068;-69
2021/08/30 14:19:58;;;;;;;10.10;7.22;;;;;;;;;;5016006;28;20547;-68
2021/08/30 14:22:27;;;;;;;8.05;7.25;;;;;;;;;;5017891;28;20054;-69
2021/08/30 14:24:55;;;;;;;8.35;7.60;;;;;;;;;;5022182;28;20107;-68
2021/08/30 14:27:22;;;;;;;7.70;7.00;;;;;;;;;;5022195;28;20052;-68
2021/08/30 14:29:50;;;;;;;9.80;7.68;;;;;;;;;;5022840;28;20033;-68
2021/08/30 14:32:17;;;;;;;9.18;7.82;;;;;;;;;;5021175;28;20049;-70
2021/08/30 14:34:44;;;;;;;8.23;7.47;;;;;;;;;;5012005;28;20045;-69
2021/08/30 14:37:12;;;;;;;10.48;7.55;;;;;;;;;;5011509;28;20052;-68
2021/08/30 14:39:39;;;;;;;8.65;7.43;;;;;;;;;;5015817;28;20471;-69
2021/08/30 14:42:08;;;;;;;10.10;7.63;;;;;;;;;;5009657;28;20511;-67
2021/08/30 14:44:36;;;;;;;9.85;7.90;;;;;;;;;;5009161;28;20160;-68
2021/08/30 14:47:03;;;;;;;8.27;7.47;;;;;;;;;;5010042;28;20049;-68
2021/08/30 14:49:30;;;;;;;9.45;8.35;;;;;;;;;;5010871;28;20519;-69
2021/08/30 14:51:58;;;;;;;11.85;9.00;;;;;;;;;;5012121;28;20052;-68
2021/08/30 14:54:25;;;;;;;10.23;8.52;;;;;;;;;;5009992;28;20038;-68
2021/08/30 14:56:53;;;;;;;8.68;7.78;;;;;;;;;;5013000;28;20042;-69
2021/08/30 14:59:21;;;;;;;8.98;7.60;;;;;;;;;;5013093;28;20049;-69
2021/08/30 15:01:50;;;;;;;8.50;7.55;;;;;;;;;;5009826;28;20120;-69
2021/08/30 15:04:17;;;;;;;8.93;8.13;;;;;;;;;;5008591;28;20081;-70
2021/08/30 15:06:44;;;;;;;10.35;8.68;;;;;;;;;;5010434;28;20066;-69
2021/08/30 15:09:12;;;;;;;8.50;7.70;;;;;;;;;;5012154;28;20037;-70
2021/08/30 15:11:39;;;;;;;17.02;8.90;;;;;;;;;;5027925;28;20041;-68
2021/08/30 15:14:06;;;;;;;9.80;7.60;;;;;;;;;;5027497;28;20643;-69
2021/08/30 15:16:35;;;;;;;9.05;8.15;;;;;;;;;;5026831;28;20116;-68
2021/08/30 15:19:02;;;;;;;9.27;8.35;;;;;;;;;;5009691;28;20041;-70
2021/08/30 15:21:30;;;;;;;10.18;8.52;;;;;;;;;;5012605;28;20129;-70
2021/08/30 15:23:58;;;;;;;10.82;8.98;;;;;;;;;;5026693;28;20054;-71
2021/08/30 15:26:26;;;;;;;10.70;8.27;;;;;;;;;;5018058;28;20038;-70
2021/08/30 15:29:01;;;;;;;9.77;8.77;;;;;;;;;;5022233;28;20468;-71
2021/08/30 15:31:28;;;;;;;10.00;8.27;;;;;;;;;;5025203;28;20041;-72
2021/08/30 15:33:57;;;;;;;12.77;8.02;;;;;;;;;;5024000;28;20046;-71
2021/08/30 15:36:26;;;;;;;9.52;8.07;;;;;;;;;;5026740;28;20048;-71
2021/08/30 15:38:54;;;;;;;9.35;8.40;;;;;;;;;;5029800;28;20049;-70
2021/08/30 15:41:22;;;;;;;11.95;9.30;;;;;;;;;;5029729;28;20183;-70
2021/08/30 15:43:49;;;;;;;10.05;8.95;;;;;;;;;;5024529;28;20464;-70
2021/08/30 15:46:17;;;;;;;8.90;8.10;;;;;;;;;;5026168;28;20038;-69
2021/08/30 15:48:44;;;;;;;8.25;7.05;;;;;;;;;;5030179;28;20464;-70
2021/08/30 15:51:13;;;;;;;8.98;7.90;;;;;;;;;;5027127;28;20045;-71
2021/08/30 15:53:41;;;;;;;8.98;7.63;;;;;;;;;;5009104;28;20136;-71
2021/08/30 15:56:08;;;;;;;8.82;7.82;;;;;;;;;;5025821;28;20486;-70
2021/08/30 15:58:36;;;;;;;8.65;7.80;;;;;;;;;;5027881;28;20117;-70
2021/08/30 16:01:04;;;;;;;7.43;6.72;;;;;;;;;;5025604;28;20065;-71
2021/08/30 16:03:31;;;;;;;8.98;7.25;;;;;;;;;;5027714;28;20052;-71
2021/08/30 16:06:00;;;;;;;9.20;6.97;;;;;;;;;;5024770;28;20565;-70
2021/08/30 16:08:28;;;;;;;11.80;7.20;;;;;;;;;;5023201;28;20061;-71
2021/08/30 16:10:56;;;;;;;7.60;6.38;;;;;;;;;;5028002;28;20469;-72
2021/08/30 16:13:23;;;;;;;7.65;6.68;;;;;;;;;;5023396;28;21852;-72
2021/08/30 16:15:52;;;;;;;6.95;6.10;;;;;;;;;;5014944;28;20127;-72
2021/08/30 16:18:20;;;;;;;6.97;6.38;;;;;;;;;;5003773;28;20034;-72
2021/08/30 16:20:47;;;;;;;7.00;6.30;;;;;;;;;;5025208;28;20045;-72
2021/08/30 16:23:14;;;;;;;12.75;6.88;;;;;;;;;;5021406;28;20519;-72
2021/08/30 16:25:43;;;;;;;7.40;6.30;;;;;;;;;;5019020;28;20399;-73
2021/08/30 16:28:10;;;;;;;7.90;6.90;;;;;;;;;;5026559;28;20092;-73
2021/08/30 16:30:38;;;;;;;8.77;6.03;;;;;;;;;;5030079;28;20124;-73
2021/08/30 16:33:06;;;;;;;8.65;6.43;;;;;;;;;;5028490;28;20038;-72
2021/08/30 16:35:34;;;;;;;12.23;6.72;;;;;;;;;;5013490;28;20512;-72
2021/08/30 16:38:01;;;;;;;7.30;6.60;;;;;;;;;;5029894;28;20048;-72
2021/08/30 16:40:29;;;;;;;7.88;6.80;;;;;;;;;;5000498;28;20136;-72
2021/08/30 16:42:57;;;;;;;7.88;7.10;;;;;;;;;;4997354;28;20073;-72
2021/08/30 16:45:25;;;;;;;9.27;6.50;;;;;;;;;;4998531;28;20501;-72
2021/08/30 16:47:52;;;;;;;9.07;7.10;;;;;;;;;;5001859;28;20136;-71
2021/08/30 16:50:20;;;;;;;7.30;6.53;;;;;;;;;;5022110;28;20048;-72
2021/08/30 16:52:47;;;;;;;9.07;6.38;;;;;;;;;;5013841;28;20596;-72
2021/08/30 16:55:15;;;;;;;9.75;6.68;;;;;;;;;;5032282;28;20095;-72
2021/08/30 16:57:42;;;;;;;10.13;7.50;;;;;;;;;;5019505;28;20050;-72
2021/08/30 17:00:12;;;;;;;7.78;6.78;;;;;;;;;;5029351;28;20033;-72
2021/08/30 17:02:40;;;;;;;8.45;7.18;;;;;;;;;;5012144;28;20053;-72
2021/08/30 17:05:08;;;;;;;9.10;8.20;;;;;;;;;;5027369;28;20049;-71
2021/08/30 17:07:35;;;;;;;7.45;6.60;;;;;;;;;;5027190;28;20509;-73
2021/08/30 17:10:02;;;;;;;7.90;7.10;;;;;;;;;;5022790;28;20060;-73
2021/08/30 17:12:30;;;;;;;8.25;7.32;;;;;;;;;;5032649;28;20046;-72
2021/08/30 17:14:58;;;;;;;7.25;6.13;;;;;;;;;;5031164;28;20045;-72
2021/08/30 17:17:26;;;;;;;7.85;7.05;;;;;;;;;;5028987;28;20061;-72
2021/08/30 17:19:54;;;;;;;7.32;6.63;;;;;;;;;;5030050;28;20044;-73
2021/08/30 17:22:21;;;;;;;13.40;7.50;;;;;;;;;;5012562;28;20049;-72
2021/08/30 17:24:49;;;;;;;8.32;7.53;;;;;;;;;;5026777;28;20044;-73
2021/08/30 17:27:16;;;;;;;11.02;7.18;;;;;;;;;;5019661;28;20077;-72
2021/08/30 17:29:43;;;;;;;7.40;6.63;;;;;;;;;;5018953;28;20046;-72
2021/08/30 17:32:11;;;;;;;7.75;6.93;;;;;;;;;;5030045;28;20557;-73
2021/08/30 17:34:40;;;;;;;7.65;6.95;;;;;;;;;;5016968;28;20037;-71
2021/08/30 17:37:08;;;;;;;9.00;8.10;;;;;;;;;;5023207;28;20042;-71
2021/08/30 17:39:36;;;;;;;10.85;7.50;;;;;;;;;;5017374;28;20029;-73
2021/08/30 17:42:03;;;;;;;8.43;7.25;;;;;;;;;;5028660;28;20445;-72
2021/08/30 17:44:31;;;;;;;10.02;6.97;;;;;;;;;;5032204;28;20060;-71
2021/08/30 17:46:59;;;;;;;10.98;7.10;;;;;;;;;;5026753;28;20044;-72
2021/08/30 17:49:27;;;;;;;10.55;8.20;;;;;;;;;;5002835;28;20049;-72
2021/08/30 17:51:55;;;;;;;13.75;8.40;;;;;;;;;;5021102;28;20113;-72
2021/08/30 17:54:23;;;;;;;10.52;8.80;;;;;;;;;;4999427;28;20046;-72
2021/08/30 17:56:50;;;;;;;12.13;10.82;;;;;;;;;;5005662;28;20042;-72
2021/08/30 17:59:17;;;;;;;14.43;9.95;;;;;;;;;;5012908;28;20037;-71
2021/08/30 18:01:46;;;;;;;12.18;10.80;;;;;;;;;;5030185;28;20050;-70
2021/08/30 18:04:14;;;;;;;13.70;9.90;;;;;;;;;;5029324;28;20046;-70
2021/08/30 18:06:41;;;;;;;12.15;9.80;;;;;;;;;;5029702;28;20045;-71
2021/08/30 18:09:10;;;;;;;12.18;9.07;;;;;;;;;;5015067;28;20109;-70
2021/08/30 18:11:37;;;;;;;10.10;8.00;;;;;;;;;;5029910;28;20112;-71
2021/08/30 18:14:05;;;;;;;9.30;8.40;;;;;;;;;;5027616;28;20438;-70
2021/08/30 18:16:32;;;;;;;13.18;9.18;;;;;;;;;;5029809;28;20041;-70
2021/08/30 18:18:59;;;;;;;9.45;8.35;;;;;;;;;;5028785;28;20045;-70
2021/08/30 18:21:27;;;;;;;10.55;8.38;;;;;;;;;;5027531;28;20116;-71
2021/08/30 18:23:54;;;;;;;11.68;8.23;;;;;;;;;;5030201;28;20413;-71
2021/08/30 18:26:24;;;;;;;9.38;8.38;;;;;;;;;;5017091;28;20086;-72
2021/08/30 18:28:51;;;;;;;9.32;8.32;;;;;;;;;;5024307;28;20056;-72
2021/08/30 18:31:18;;;;;;;10.00;8.27;;;;;;;;;;5026116;28;20048;-72
2021/08/30 18:33:46;;;;;;;8.07;7.28;;;;;;;;;;5029261;28;20437;-72
2021/08/30 18:36:13;;;;;;;10.02;8.25;;;;;;;;;;5027612;28;20080;-72
2021/08/30 18:38:41;;;;;;;8.77;7.88;;;;;;;;;;5028679;28;20613;-73
2021/08/30 18:41:08;;;;;;;9.85;8.20;;;;;;;;;;5030454;28;20164;-72
2021/08/30 18:43:37;;;;;;;11.02;8.60;;;;;;;;;;5030068;28;20041;-71
2021/08/30 18:46:05;;;;;;;12.85;9.13;;;;;;;;;;5027461;28;20072;-71
2021/08/30 18:48:33;;;;;;;9.73;8.73;;;;;;;;;;5028603;28;20042;-71
2021/08/30 18:51:01;;;;;;;10.95;8.73;;;;;;;;;;5030074;28;20050;-70
2021/08/30 18:53:29;;;;;;;11.45;8.77;;;;;;;;;;5027545;28;20041;-71
2021/08/30 18:55:56;;;;;;;10.60;8.30;;;;;;;;;;5029786;28;20056;-71
2021/08/30 18:58:23;;;;;;;9.15;8.18;;;;;;;;;;5011613;28;20125;-70
2021/08/30 19:00:52;;;;;;;10.60;8.60;;;;;;;;;;5019224;28;20046;-70
2021/08/30 19:03:19;;;;;;;9.10;8.20;;;;;;;;;;5022329;28;20037;-70
2021/08/30 19:05:47;;;;;;;11.68;8.18;;;;;;;;;;5023402;28;20038;-70
2021/08/30 19:08:14;;;;;;;9.93;7.68;;;;;;;;;;5025406;28;20066;-70
2021/08/30 19:10:41;;;;;;;9.88;7.72;;;;;;;;;;5017957;28;20065;-70
2021/08/30 19:13:09;;;;;;;8.75;7.88;;;;;;;;;;5010457;28;20049;-70
2021/08/30 19:15:36;;;;;;;10.38;8.43;;;;;;;;;;5026937;28;20152;-69
2021/08/30 19:18:05;;;;;;;9.60;7.63;;;;;;;;;;5026652;28;20046;-69
2021/08/30 19:20:33;;;;;;;9.55;8.65;;;;;;;;;;5028265;28;20077;-70
2021/08/30 19:23:01;;;;;;;8.98;8.07;;;;;;;;;;5029656;28;20041;-69
2021/08/30 19:25:28;;;;;;;8.75;7.95;;;;;;;;;;5028245;28;20120;-70
2021/08/30 19:27:56;;;;;;;9.85;8.38;;;;;;;;;;5025244;28;20053;-70